createdAt,value
2017-03-11T00:00:09.684Z,101312
2017-03-11T00:01:10.256Z,101301
2017-03-11T00:02:09.816Z,101308
2017-03-11T00:03:09.790Z,101297
2017-03-11T00:04:09.839Z,101298
2017-03-11T00:05:10.358Z,101299
2017-03-11T00:06:09.929Z,101297
2017-03-11T00:07:10.511Z,101290
2017-03-11T00:08:10.547Z,101292
2017-03-11T00:09:10.055Z,101290
2017-03-11T00:10:10.142Z,101290
2017-03-11T00:11:10.143Z,101286
2017-03-11T00:12:10.243Z,101280
2017-03-11T00:13:10.362Z,101277
2017-03-11T00:14:10.905Z,101274
2017-03-11T00:15:10.500Z,101277
2017-03-11T00:16:10.551Z,101278
2017-03-11T00:17:10.668Z,101281
2017-03-11T00:18:10.719Z,101274
2017-03-11T00:19:10.697Z,101280
2017-03-11T00:20:10.805Z,101281
2017-03-11T00:21:11.353Z,101279
2017-03-11T00:22:10.906Z,101276
2017-03-11T00:23:10.955Z,101277
2017-03-11T00:24:11.498Z,101280
2017-03-11T00:25:11.590Z,101286
2017-03-11T00:26:11.152Z,101285
2017-03-11T00:27:11.705Z,101290
2017-03-11T00:28:11.720Z,101285
2017-03-11T00:29:11.831Z,101290
2017-03-11T00:30:11.820Z,101286
2017-03-11T00:31:11.946Z,101289
2017-03-11T00:32:11.411Z,101294
2017-03-11T00:33:12.005Z,101291
2017-03-11T00:34:11.549Z,101291
2017-03-11T00:35:12.191Z,101291
2017-03-11T00:36:12.192Z,101291
2017-03-11T00:37:11.707Z,101288
2017-03-11T00:38:12.265Z,101290
2017-03-11T00:39:11.807Z,101291
2017-03-11T00:40:12.394Z,101291
2017-03-11T00:41:11.871Z,101295
2017-03-11T00:42:12.423Z,101292
2017-03-11T00:43:11.958Z,101294
2017-03-11T00:44:12.075Z,101288
2017-03-11T00:45:12.620Z,101282
2017-03-11T00:46:12.699Z,101286
2017-03-11T00:47:12.252Z,101286
2017-03-11T00:48:12.294Z,101288
2017-03-11T00:49:12.909Z,101294
2017-03-11T00:50:12.400Z,101301
2017-03-11T00:51:12.436Z,101296
2017-03-11T00:52:13.043Z,101306
2017-03-11T00:53:13.014Z,101305
2017-03-11T00:54:13.102Z,101295
2017-03-11T00:55:12.584Z,101301
2017-03-11T00:56:12.588Z,101301
2017-03-11T00:57:12.661Z,101296
2017-03-11T00:58:13.248Z,101305
2017-03-11T00:59:13.315Z,101306
2017-03-11T01:00:13.309Z,101302
2017-03-11T01:01:12.835Z,101310
2017-03-11T01:02:13.432Z,101307
2017-03-11T01:03:13.485Z,101300
2017-03-11T01:04:13.535Z,101305
2017-03-11T01:05:13.548Z,101305
2017-03-11T01:06:13.601Z,101300
2017-03-11T01:07:13.124Z,101305
2017-03-11T01:08:13.109Z,101298
2017-03-11T01:09:13.168Z,101301
2017-03-11T01:10:13.708Z,101293
2017-03-11T01:11:13.782Z,101292
2017-03-11T01:12:13.823Z,101290
2017-03-11T01:13:13.886Z,101282
2017-03-11T01:14:13.964Z,101286
2017-03-11T01:15:13.446Z,101284
2017-03-11T01:16:13.515Z,101278
2017-03-11T01:17:14.037Z,101280
2017-03-11T01:18:13.659Z,101280
2017-03-11T01:19:14.188Z,101273
2017-03-11T01:20:14.220Z,101273
2017-03-11T01:21:13.750Z,101266
2017-03-11T01:22:13.882Z,101263
2017-03-11T01:23:14.459Z,101266
2017-03-11T01:24:14.025Z,101263
2017-03-11T01:25:14.591Z,101265
2017-03-11T01:26:14.688Z,101262
2017-03-11T01:27:14.087Z,101264
2017-03-11T01:28:14.696Z,101261
2017-03-11T01:29:14.161Z,101257
2017-03-11T01:30:14.814Z,101254
2017-03-11T01:31:14.363Z,101246
2017-03-11T01:32:14.923Z,101243
2017-03-11T01:33:15.015Z,101242
2017-03-11T01:34:14.531Z,101237
2017-03-11T01:35:14.541Z,101238
2017-03-11T01:36:14.609Z,101233
2017-03-11T01:37:14.697Z,101235
2017-03-11T01:38:14.824Z,101232
2017-03-11T01:39:15.409Z,101228
2017-03-11T01:40:15.125Z,101233
2017-03-11T01:41:15.562Z,101228
2017-03-11T01:42:15.130Z,101228
2017-03-11T01:43:15.690Z,101225
2017-03-11T01:44:15.127Z,101215
2017-03-11T01:45:15.227Z,101221
2017-03-11T01:46:15.462Z,101218
2017-03-11T01:47:15.899Z,101214
2017-03-11T01:48:15.931Z,101216
2017-03-11T01:49:15.429Z,101218
2017-03-11T01:50:15.478Z,101218
2017-03-11T01:51:16.136Z,101219
2017-03-11T01:52:16.302Z,101214
2017-03-11T01:53:16.119Z,101214
2017-03-11T01:54:15.661Z,101212
2017-03-11T01:55:15.753Z,101208
2017-03-11T01:56:16.402Z,101203
2017-03-11T01:57:16.420Z,101204
2017-03-11T01:58:16.700Z,101200
2017-03-11T01:59:16.579Z,101201
2017-03-11T02:00:16.585Z,101204
2017-03-11T02:01:16.656Z,101203
2017-03-11T02:02:16.631Z,101195
2017-03-11T02:03:16.723Z,101199
2017-03-11T02:04:16.918Z,101201
2017-03-11T02:05:16.317Z,101203
2017-03-11T02:06:16.854Z,101200
2017-03-11T02:07:16.408Z,101196
2017-03-11T02:08:16.469Z,101201
2017-03-11T02:09:16.522Z,101196
2017-03-11T02:10:16.721Z,101198
2017-03-11T02:11:17.074Z,101195
2017-03-11T02:12:17.136Z,101195
2017-03-11T02:13:16.614Z,101193
2017-03-11T02:14:17.179Z,101195
2017-03-11T02:15:16.636Z,101188
2017-03-11T02:16:17.380Z,101186
2017-03-11T02:17:17.333Z,101180
2017-03-11T02:18:16.767Z,101184
2017-03-11T02:19:16.867Z,101180
2017-03-11T02:20:17.447Z,101179
2017-03-11T02:21:17.241Z,101179
2017-03-11T02:22:16.971Z,101179
2017-03-11T02:23:17.604Z,101176
2017-03-11T02:24:17.675Z,101181
2017-03-11T02:25:17.727Z,101176
2017-03-11T02:26:17.323Z,101174
2017-03-11T02:27:17.436Z,101178
2017-03-11T02:28:17.327Z,101179
2017-03-11T02:29:17.985Z,101179
2017-03-11T02:30:17.997Z,101175
2017-03-11T02:31:17.449Z,101172
2017-03-11T02:32:17.498Z,101171
2017-03-11T02:33:17.789Z,101162
2017-03-11T02:34:17.582Z,101158
2017-03-11T02:35:17.657Z,101161
2017-03-11T02:36:17.752Z,101162
2017-03-11T02:37:17.892Z,101162
2017-03-11T02:38:18.421Z,101154
2017-03-11T02:39:18.619Z,101155
2017-03-11T02:40:18.016Z,101161
2017-03-11T02:41:18.601Z,101159
2017-03-11T02:42:18.135Z,101159
2017-03-11T02:43:18.667Z,101156
2017-03-11T02:44:18.131Z,101149
2017-03-11T02:45:18.944Z,101157
2017-03-11T02:46:18.859Z,101157
2017-03-11T02:47:18.420Z,101157
2017-03-11T02:48:18.428Z,101155
2017-03-11T02:49:18.442Z,101152
2017-03-11T02:50:19.087Z,101152
2017-03-11T02:51:18.740Z,101151
2017-03-11T02:52:19.130Z,101145
2017-03-11T02:53:19.194Z,101150
2017-03-11T02:54:18.785Z,101142
2017-03-11T02:55:18.821Z,101147
2017-03-11T02:56:19.395Z,101145
2017-03-11T02:57:19.008Z,101138
2017-03-11T02:58:18.958Z,101140
2017-03-11T02:59:19.545Z,101133
2017-03-11T03:00:19.079Z,101138
2017-03-11T03:01:19.704Z,101139
2017-03-11T03:02:19.788Z,101133
2017-03-11T03:03:19.457Z,101129
2017-03-11T03:04:19.918Z,101134
2017-03-11T03:05:19.448Z,101130
2017-03-11T03:06:19.503Z,101134
2017-03-11T03:07:20.033Z,101136
2017-03-11T03:08:20.041Z,101135
2017-03-11T03:09:20.291Z,101131
2017-03-11T03:10:19.659Z,101136
2017-03-11T03:11:20.220Z,101137
2017-03-11T03:12:19.748Z,101139
2017-03-11T03:13:20.262Z,101142
2017-03-11T03:14:19.790Z,101139
2017-03-11T03:15:20.495Z,101139
2017-03-11T03:16:19.906Z,101135
2017-03-11T03:17:20.461Z,101138
2017-03-11T03:18:20.598Z,101139
2017-03-11T03:19:20.580Z,101139
2017-03-11T03:20:20.055Z,101142
2017-03-11T03:21:20.399Z,101144
2017-03-11T03:22:20.165Z,101144
2017-03-11T03:23:20.239Z,101145
2017-03-11T03:24:20.289Z,101140
2017-03-11T03:25:20.891Z,101140
2017-03-11T03:26:20.941Z,101138
2017-03-11T03:27:20.557Z,101140
2017-03-11T03:28:21.058Z,101143
2017-03-11T03:29:21.139Z,101139
2017-03-11T03:30:20.593Z,101144
2017-03-11T03:31:20.658Z,101146
2017-03-11T03:32:21.274Z,101143
2017-03-11T03:33:21.443Z,101142
2017-03-11T03:34:20.753Z,101137
2017-03-11T03:35:21.314Z,101136
2017-03-11T03:36:21.447Z,101129
2017-03-11T03:37:20.927Z,101132
2017-03-11T03:38:21.593Z,101132
2017-03-11T03:39:21.612Z,101139
2017-03-11T03:40:21.051Z,101134
2017-03-11T03:41:21.650Z,101140
2017-03-11T03:42:21.174Z,101135
2017-03-11T03:43:21.820Z,101141
2017-03-11T03:44:21.317Z,101139
2017-03-11T03:45:21.351Z,101141
2017-03-11T03:46:21.346Z,101139
2017-03-11T03:47:21.420Z,101142
2017-03-11T03:48:21.437Z,101138
2017-03-11T03:49:22.023Z,101135
2017-03-11T03:50:21.495Z,101137
2017-03-11T03:51:21.617Z,101137
2017-03-11T03:52:21.716Z,101141
2017-03-11T03:53:22.296Z,101132
2017-03-11T03:54:22.326Z,101138
2017-03-11T03:55:22.453Z,101132
2017-03-11T03:56:22.437Z,101134
2017-03-11T03:57:22.497Z,101137
2017-03-11T03:58:22.560Z,101128
2017-03-11T03:59:22.095Z,101131
2017-03-11T04:00:22.119Z,101130
2017-03-11T04:01:22.194Z,101135
2017-03-11T04:02:22.263Z,101134
2017-03-11T04:03:22.310Z,101131
2017-03-11T04:04:22.309Z,101129
2017-03-11T04:05:22.375Z,101135
2017-03-11T04:06:22.974Z,101134
2017-03-11T04:07:23.005Z,101132
2017-03-11T04:08:22.494Z,101127
2017-03-11T04:09:23.146Z,101128
2017-03-11T04:10:22.542Z,101127
2017-03-11T04:11:23.216Z,101131
2017-03-11T04:12:22.689Z,101133
2017-03-11T04:13:23.362Z,101132
2017-03-11T04:14:23.402Z,101126
2017-03-11T04:15:22.891Z,101126
2017-03-11T04:16:22.912Z,101128
2017-03-11T04:17:23.559Z,101125
2017-03-11T04:18:23.069Z,101123
2017-03-11T04:19:23.617Z,101123
2017-03-11T04:20:23.735Z,101121
2017-03-11T04:21:23.812Z,101122
2017-03-11T04:22:23.812Z,101121
2017-03-11T04:23:23.346Z,101120
2017-03-11T04:24:23.437Z,101118
2017-03-11T04:25:24.041Z,101112
2017-03-11T04:26:24.092Z,101117
2017-03-11T04:27:23.654Z,101118
2017-03-11T04:28:23.747Z,101115
2017-03-11T04:29:23.749Z,101118
2017-03-11T04:30:24.353Z,101114
2017-03-11T04:31:24.382Z,101112
2017-03-11T04:32:23.921Z,101108
2017-03-11T04:33:24.416Z,101111
2017-03-11T04:34:24.449Z,101108
2017-03-11T04:35:23.956Z,101113
2017-03-11T04:36:24.547Z,101113
2017-03-11T04:37:24.083Z,101107
2017-03-11T04:38:24.640Z,101110
2017-03-11T04:39:24.165Z,101104
2017-03-11T04:40:24.766Z,101107
2017-03-11T04:41:24.814Z,101104
2017-03-11T04:42:24.338Z,101097
2017-03-11T04:43:24.344Z,101098
2017-03-11T04:44:24.314Z,101102
2017-03-11T04:45:24.880Z,101100
2017-03-11T04:46:24.314Z,101101
2017-03-11T04:47:24.389Z,101099
2017-03-11T04:48:25.005Z,101099
2017-03-11T04:49:24.554Z,101095
2017-03-11T04:51:25.179Z,101092
2017-03-11T04:52:24.672Z,101093
2017-03-11T04:53:25.209Z,101095
2017-03-11T04:54:25.290Z,101094
2017-03-11T04:55:24.801Z,101094
2017-03-11T04:56:25.559Z,101087
2017-03-11T04:57:25.513Z,101093
2017-03-11T04:58:25.033Z,101088
2017-03-11T04:59:25.119Z,101087
2017-03-11T05:00:25.177Z,101087
2017-03-11T05:01:25.856Z,101089
2017-03-11T05:02:26.030Z,101090
2017-03-11T05:03:25.329Z,101089
2017-03-11T05:04:25.347Z,101088
2017-03-11T05:05:25.362Z,101088
2017-03-11T05:06:25.431Z,101091
2017-03-11T05:07:25.447Z,101087
2017-03-11T05:08:25.684Z,101087
2017-03-11T05:09:25.533Z,101090
2017-03-11T05:10:26.120Z,101088
2017-03-11T05:11:26.190Z,101085
2017-03-11T05:12:26.188Z,101084
2017-03-11T05:13:25.747Z,101085
2017-03-11T05:14:25.880Z,101087
2017-03-11T05:15:26.336Z,101079
2017-03-11T05:16:26.341Z,101083
2017-03-11T05:17:25.874Z,101093
2017-03-11T05:18:25.945Z,101089
2017-03-11T05:19:26.517Z,101087
2017-03-11T05:20:26.373Z,101087
2017-03-11T05:21:26.579Z,101086
2017-03-11T05:22:26.050Z,101085
2017-03-11T05:23:26.714Z,101085
2017-03-11T05:24:26.249Z,101083
2017-03-11T05:25:26.848Z,101085
2017-03-11T05:26:26.639Z,101082
2017-03-11T05:27:26.350Z,101084
2017-03-11T05:28:26.917Z,101076
2017-03-11T05:29:26.984Z,101080
2017-03-11T05:30:26.484Z,101075
2017-03-11T05:31:26.518Z,101080
2017-03-11T05:32:27.303Z,101076
2017-03-11T05:33:27.104Z,101075
2017-03-11T05:34:26.571Z,101072
2017-03-11T05:35:27.201Z,101068
2017-03-11T05:36:27.238Z,101076
2017-03-11T05:37:27.273Z,101078
2017-03-11T05:38:27.673Z,101076
2017-03-11T05:39:26.851Z,101072
2017-03-11T05:40:27.480Z,101071
2017-03-11T05:41:26.946Z,101069
2017-03-11T05:42:27.538Z,101067
2017-03-11T05:43:27.636Z,101071
2017-03-11T05:44:27.831Z,101068
2017-03-11T05:45:27.782Z,101066
2017-03-11T05:46:27.806Z,101066
2017-03-11T05:47:27.859Z,101066
2017-03-11T05:48:27.867Z,101067
2017-03-11T05:49:27.935Z,101066
2017-03-11T05:50:27.598Z,101063
2017-03-11T05:51:28.014Z,101066
2017-03-11T05:52:27.979Z,101057
2017-03-11T05:53:27.489Z,101063
2017-03-11T05:54:28.123Z,101064
2017-03-11T05:55:27.598Z,101064
2017-03-11T05:56:28.450Z,101065
2017-03-11T05:57:27.679Z,101056
2017-03-11T05:58:27.789Z,101057
2017-03-11T05:59:28.347Z,101063
2017-03-11T06:00:28.445Z,101060
2017-03-11T06:01:27.969Z,101061
2017-03-11T06:02:28.240Z,101059
2017-03-11T06:03:28.527Z,101058
2017-03-11T06:04:28.572Z,101054
2017-03-11T06:05:28.591Z,101055
2017-03-11T06:06:28.701Z,101056
2017-03-11T06:07:28.219Z,101056
2017-03-11T06:08:28.965Z,101054
2017-03-11T06:09:28.846Z,101050
2017-03-11T06:10:28.331Z,101054
2017-03-11T06:11:28.387Z,101052
2017-03-11T06:12:28.482Z,101051
2017-03-11T06:13:29.117Z,101051
2017-03-11T06:14:28.754Z,101051
2017-03-11T06:15:29.104Z,101044
2017-03-11T06:16:29.151Z,101049
2017-03-11T06:17:29.133Z,101051
2017-03-11T06:18:28.579Z,101047
2017-03-11T06:19:28.729Z,101045
2017-03-11T06:20:29.484Z,101054
2017-03-11T06:21:29.373Z,101054
2017-03-11T06:22:28.983Z,101053
2017-03-11T06:23:29.043Z,101052
2017-03-11T06:24:29.039Z,101053
2017-03-11T06:25:29.663Z,101050
2017-03-11T06:26:29.338Z,101051
2017-03-11T06:27:29.740Z,101046
2017-03-11T06:28:29.340Z,101048
2017-03-11T06:29:29.909Z,101044
2017-03-11T06:30:29.384Z,101048
2017-03-11T06:31:29.379Z,101045
2017-03-11T06:32:29.607Z,101044
2017-03-11T06:33:29.555Z,101042
2017-03-11T06:34:29.614Z,101042
2017-03-11T06:35:30.236Z,101041
2017-03-11T06:36:29.714Z,101046
2017-03-11T06:37:29.721Z,101049
2017-03-11T06:38:30.039Z,101045
2017-03-11T06:39:29.854Z,101043
2017-03-11T06:40:29.958Z,101050
2017-03-11T06:41:30.441Z,101047
2017-03-11T06:42:29.982Z,101044
2017-03-11T06:43:30.604Z,101040
2017-03-11T06:44:30.871Z,101039
2017-03-11T06:45:30.213Z,101046
2017-03-11T06:46:30.851Z,101041
2017-03-11T06:47:30.924Z,101045
2017-03-11T06:48:31.011Z,101038
2017-03-11T06:49:31.065Z,101038
2017-03-11T06:50:31.255Z,101044
2017-03-11T06:51:30.579Z,101044
2017-03-11T06:52:30.630Z,101041
2017-03-11T06:53:31.215Z,101043
2017-03-11T06:54:30.711Z,101042
2017-03-11T06:55:30.737Z,101042
2017-03-11T06:56:31.092Z,101045
2017-03-11T06:57:31.293Z,101039
2017-03-11T06:58:31.450Z,101037
2017-03-11T06:59:31.519Z,101040
2017-03-11T07:00:30.977Z,101043
2017-03-11T07:01:31.081Z,101042
2017-03-11T07:02:31.343Z,101043
2017-03-11T07:03:31.284Z,101044
2017-03-11T07:04:31.299Z,101038
2017-03-11T07:05:31.406Z,101038
2017-03-11T07:06:32.010Z,101042
2017-03-11T07:07:31.491Z,101040
2017-03-11T07:08:32.284Z,101038
2017-03-11T07:09:32.250Z,101039
2017-03-11T07:10:31.693Z,101040
2017-03-11T07:11:32.348Z,101038
2017-03-11T07:12:32.407Z,101043
2017-03-11T07:13:32.101Z,101040
2017-03-11T07:14:32.506Z,101043
2017-03-11T07:15:32.628Z,101048
2017-03-11T07:16:32.638Z,101042
2017-03-11T07:17:32.161Z,101043
2017-03-11T07:18:32.809Z,101040
2017-03-11T07:19:32.599Z,101043
2017-03-11T07:20:32.883Z,101045
2017-03-11T07:21:32.869Z,101047
2017-03-11T07:22:32.389Z,101046
2017-03-11T07:23:32.472Z,101045
2017-03-11T07:24:32.594Z,101047
2017-03-11T07:25:33.297Z,101040
2017-03-11T07:26:32.630Z,101045
2017-03-11T07:27:32.609Z,101040
2017-03-11T07:28:33.232Z,101045
2017-03-11T07:29:32.670Z,101051
2017-03-11T07:30:32.743Z,101047
2017-03-11T07:31:33.517Z,101050
2017-03-11T07:32:33.384Z,101050
2017-03-11T07:33:33.378Z,101051
2017-03-11T07:34:32.875Z,101049
2017-03-11T07:35:32.919Z,101044
2017-03-11T07:36:32.987Z,101048
2017-03-11T07:37:33.661Z,101049
2017-03-11T07:38:33.100Z,101039
2017-03-11T07:39:33.105Z,101045
2017-03-11T07:40:33.762Z,101051
2017-03-11T07:41:33.250Z,101047
2017-03-11T07:42:33.926Z,101046
2017-03-11T07:43:34.103Z,101043
2017-03-11T07:44:33.471Z,101046
2017-03-11T07:45:34.103Z,101048
2017-03-11T07:46:34.147Z,101042
2017-03-11T07:47:33.606Z,101047
2017-03-11T07:48:33.591Z,101039
2017-03-11T07:49:34.599Z,101041
2017-03-11T07:50:34.310Z,101039
2017-03-11T07:51:33.933Z,101037
2017-03-11T07:52:33.975Z,101030
2017-03-11T07:53:33.985Z,101034
2017-03-11T07:54:33.996Z,101032
2017-03-11T07:55:34.550Z,101035
2017-03-11T07:56:34.096Z,101034
2017-03-11T07:57:34.124Z,101039
2017-03-11T07:58:34.108Z,101037
2017-03-11T07:59:34.183Z,101037
2017-03-11T08:00:34.846Z,101035
2017-03-11T08:01:34.903Z,101038
2017-03-11T08:02:34.455Z,101039
2017-03-11T08:03:35.048Z,101039
2017-03-11T08:04:35.088Z,101039
2017-03-11T08:05:34.580Z,101033
2017-03-11T08:06:34.637Z,101032
2017-03-11T08:07:34.597Z,101031
2017-03-11T08:08:35.226Z,101035
2017-03-11T08:09:35.287Z,101036
2017-03-11T08:10:34.807Z,101032
2017-03-11T08:11:34.800Z,101031
2017-03-11T08:12:34.813Z,101029
2017-03-11T08:13:34.811Z,101029
2017-03-11T08:14:35.389Z,101028
2017-03-11T08:15:34.907Z,101027
2017-03-11T08:16:34.939Z,101027
2017-03-11T08:17:34.938Z,101025
2017-03-11T08:18:35.055Z,101027
2017-03-11T08:19:35.011Z,101024
2017-03-11T08:20:35.603Z,101022
2017-03-11T08:21:35.616Z,101024
2017-03-11T08:22:35.098Z,101032
2017-03-11T08:23:35.601Z,101027
2017-03-11T08:24:35.734Z,101016
2017-03-11T08:25:35.745Z,101029
2017-03-11T08:26:35.248Z,101026
2017-03-11T08:27:35.848Z,101026
2017-03-11T08:28:35.921Z,101021
2017-03-11T08:29:35.412Z,101030
2017-03-11T08:30:35.978Z,101026
2017-03-11T08:31:36.078Z,101024
2017-03-11T08:32:35.646Z,101029
2017-03-11T08:33:36.227Z,101024
2017-03-11T08:34:35.788Z,101026
2017-03-11T08:35:36.292Z,101033
2017-03-11T08:36:35.837Z,101028
2017-03-11T08:37:36.459Z,101029
2017-03-11T08:38:36.002Z,101030
2017-03-11T08:39:36.518Z,101032
2017-03-11T08:40:36.090Z,101034
2017-03-11T08:41:36.097Z,101031
2017-03-11T08:42:36.142Z,101027
2017-03-11T08:43:36.717Z,101029
2017-03-11T08:44:36.803Z,101031
2017-03-11T08:45:36.271Z,101029
2017-03-11T08:46:36.909Z,101028
2017-03-11T08:47:36.364Z,101023
2017-03-11T08:48:36.362Z,101028
2017-03-11T08:49:36.996Z,101033
2017-03-11T08:50:37.072Z,101037
2017-03-11T08:51:36.526Z,101032
2017-03-11T08:52:36.580Z,101036
2017-03-11T08:53:36.631Z,101031
2017-03-11T08:54:36.680Z,101035
2017-03-11T08:55:36.754Z,101036
2017-03-11T08:56:36.812Z,101033
2017-03-11T08:57:36.745Z,101036
2017-03-11T08:58:37.377Z,101035
2017-03-11T08:59:37.448Z,101031
2017-03-11T09:00:37.507Z,101031
2017-03-11T09:01:37.589Z,101031
2017-03-11T09:02:37.088Z,101029
2017-03-11T09:03:37.105Z,101032
2017-03-11T09:04:37.139Z,101035
2017-03-11T09:05:37.736Z,101033
2017-03-11T09:06:37.248Z,101034
2017-03-11T09:07:37.905Z,101035
2017-03-11T09:08:37.926Z,101032
2017-03-11T09:09:37.391Z,101030
2017-03-11T09:10:37.448Z,101034
2017-03-11T09:11:37.556Z,101034
2017-03-11T09:12:37.682Z,101026
2017-03-11T09:13:38.223Z,101032
2017-03-11T09:14:38.278Z,101022
2017-03-11T09:15:38.294Z,101023
2017-03-11T09:16:38.323Z,101025
2017-03-11T09:17:38.414Z,101024
2017-03-11T09:18:37.893Z,101023
2017-03-11T09:19:38.430Z,101023
2017-03-11T09:20:37.941Z,101024
2017-03-11T09:21:38.523Z,101023
2017-03-11T09:22:38.033Z,101020
2017-03-11T09:23:38.079Z,101018
2017-03-11T09:24:38.718Z,101009
2017-03-11T09:25:38.709Z,101014
2017-03-11T09:26:38.797Z,101005
2017-03-11T09:27:38.322Z,101016
2017-03-11T09:28:38.872Z,101017
2017-03-11T09:29:38.408Z,101017
2017-03-11T09:30:39.032Z,101022
2017-03-11T09:31:38.536Z,101021
2017-03-11T09:32:38.489Z,101022
2017-03-11T09:33:39.074Z,101021
2017-03-11T09:34:38.576Z,101015
2017-03-11T09:35:38.646Z,101016
2017-03-11T09:36:38.701Z,101020
2017-03-11T09:37:39.312Z,101013
2017-03-11T09:38:39.403Z,101020
2017-03-11T09:39:39.420Z,101015
2017-03-11T09:40:38.924Z,101009
2017-03-11T09:41:38.898Z,101016
2017-03-11T09:42:39.507Z,101013
2017-03-11T09:43:39.529Z,101012
2017-03-11T09:44:39.609Z,101010
2017-03-11T09:45:39.674Z,101002
2017-03-11T09:46:39.220Z,101010
2017-03-11T09:47:39.223Z,101008
2017-03-11T09:48:39.716Z,101004
2017-03-11T09:49:39.776Z,101009
2017-03-11T09:50:39.823Z,101001
2017-03-11T09:51:39.877Z,101005
2017-03-11T09:52:39.399Z,101005
2017-03-11T09:53:39.900Z,101000
2017-03-11T09:54:39.983Z,100999
2017-03-11T09:55:39.514Z,101003
2017-03-11T09:56:39.633Z,101001
2017-03-11T09:57:40.233Z,101004
2017-03-11T09:58:39.752Z,101000
2017-03-11T09:59:40.332Z,100994
2017-03-11T10:00:39.832Z,100998
2017-03-11T10:01:40.392Z,100990
2017-03-11T10:02:39.956Z,100994
2017-03-11T10:03:40.550Z,100993
2017-03-11T10:04:40.594Z,100993
2017-03-11T10:05:40.144Z,100991
2017-03-11T10:06:41.406Z,100990
2017-03-11T10:07:40.788Z,100994
2017-03-11T10:08:40.287Z,100984
2017-03-11T10:09:40.347Z,100986
2017-03-11T10:10:40.937Z,100982
2017-03-11T10:11:40.923Z,100984
2017-03-11T10:12:40.431Z,100986
2017-03-11T10:13:43.094Z,100981
2017-03-11T10:14:40.494Z,100981
2017-03-11T10:15:41.054Z,100978
2017-03-11T10:16:40.578Z,100979
2017-03-11T10:17:41.149Z,100984
2017-03-11T10:18:40.657Z,100975
2017-03-11T10:19:40.663Z,100980
2017-03-11T10:20:41.232Z,100980
2017-03-11T10:21:41.320Z,100979
2017-03-11T10:22:41.393Z,100976
2017-03-11T10:23:41.638Z,100980
2017-03-11T10:24:41.021Z,100978
2017-03-11T10:25:41.567Z,100975
2017-03-11T10:26:41.687Z,100977
2017-03-11T10:27:41.743Z,100973
2017-03-11T10:28:41.852Z,100967
2017-03-11T10:29:42.022Z,100974
2017-03-11T10:30:41.869Z,100970
2017-03-11T10:31:41.424Z,100965
2017-03-11T10:32:41.989Z,100969
2017-03-11T10:33:41.481Z,100972
2017-03-11T10:34:42.151Z,100975
2017-03-11T10:35:41.845Z,100970
2017-03-11T10:36:41.669Z,100971
2017-03-11T10:37:42.273Z,100969
2017-03-11T10:38:42.359Z,100974
2017-03-11T10:39:41.874Z,100966
2017-03-11T10:40:42.622Z,100974
2017-03-11T10:41:41.997Z,100969
2017-03-11T10:42:42.602Z,100968
2017-03-11T10:43:42.636Z,100969
2017-03-11T10:44:42.648Z,100964
2017-03-11T10:45:42.255Z,100969
2017-03-11T10:46:42.635Z,100968
2017-03-11T10:47:42.873Z,100961
2017-03-11T10:48:42.424Z,100969
2017-03-11T10:49:42.995Z,100965
2017-03-11T10:50:42.486Z,100953
2017-03-11T10:51:42.509Z,100960
2017-03-11T10:52:42.911Z,100957
2017-03-11T10:53:42.600Z,100960
2017-03-11T10:54:42.699Z,100964
2017-03-11T10:55:43.267Z,100964
2017-03-11T10:56:43.304Z,100960
2017-03-11T10:57:42.868Z,100959
2017-03-11T10:58:43.019Z,100962
2017-03-11T10:59:42.908Z,100958
2017-03-11T11:00:42.919Z,100958
2017-03-11T11:01:43.581Z,100956
2017-03-11T11:02:43.629Z,100950
2017-03-11T11:03:43.776Z,100956
2017-03-11T11:04:43.790Z,100953
2017-03-11T11:05:43.241Z,100953
2017-03-11T11:06:43.240Z,100952
2017-03-11T11:07:43.827Z,100952
2017-03-11T11:08:43.931Z,100952
2017-03-11T11:09:43.443Z,100951
2017-03-11T11:10:43.705Z,100952
2017-03-11T11:11:44.096Z,100946
2017-03-11T11:12:44.091Z,100943
2017-03-11T11:13:44.146Z,100948
2017-03-11T11:14:45.729Z,100943
2017-03-11T11:15:44.243Z,100942
2017-03-11T11:16:44.448Z,100940
2017-03-11T11:17:44.268Z,100941
2017-03-11T11:18:44.573Z,100937
2017-03-11T11:19:44.457Z,100941
2017-03-11T11:20:43.971Z,100939
2017-03-11T11:21:44.499Z,100932
2017-03-11T11:22:44.030Z,100934
2017-03-11T11:23:44.586Z,100932
2017-03-11T11:24:44.007Z,100929
2017-03-11T11:25:44.625Z,100929
2017-03-11T11:26:44.187Z,100931
2017-03-11T11:27:44.267Z,100930
2017-03-11T11:28:44.770Z,100925
2017-03-11T11:29:44.711Z,100932
2017-03-11T11:30:44.793Z,100924
2017-03-11T11:31:44.251Z,100926
2017-03-11T11:32:44.832Z,100928
2017-03-11T11:33:44.896Z,100931
2017-03-11T11:34:44.358Z,100919
2017-03-11T11:35:44.975Z,100925
2017-03-11T11:36:45.028Z,100917
2017-03-11T11:37:44.548Z,100926
2017-03-11T11:38:44.605Z,100925
2017-03-11T11:39:46.091Z,100924
2017-03-11T11:40:44.637Z,100918
2017-03-11T11:41:45.231Z,100919
2017-03-11T11:42:44.651Z,100880
2017-03-11T11:43:45.274Z,100908
2017-03-11T11:44:45.360Z,100907
2017-03-11T11:45:44.797Z,100902
2017-03-11T11:46:44.812Z,100909
2017-03-11T11:47:45.377Z,100901
2017-03-11T11:48:45.419Z,100895
2017-03-11T11:49:45.514Z,100904
2017-03-11T11:50:45.009Z,100895
2017-03-11T11:51:45.021Z,100904
2017-03-11T11:52:45.584Z,100896
2017-03-11T11:53:45.045Z,100901
2017-03-11T11:54:45.105Z,100902
2017-03-11T11:55:45.677Z,100903
2017-03-11T11:56:45.179Z,100902
2017-03-11T11:57:45.267Z,100898
2017-03-11T11:58:45.882Z,100893
2017-03-11T11:59:45.371Z,100901
2017-03-11T12:00:45.446Z,100897
2017-03-11T12:01:46.028Z,100890
2017-03-11T12:02:45.537Z,100896
2017-03-11T12:03:46.092Z,100893
2017-03-11T12:04:46.094Z,100892
2017-03-11T12:05:46.122Z,100885
2017-03-11T12:06:45.623Z,100888
2017-03-11T12:07:46.220Z,100886
2017-03-11T12:08:46.296Z,100879
2017-03-11T12:09:46.299Z,100885
2017-03-11T12:10:46.321Z,100880
2017-03-11T12:11:45.813Z,100874
2017-03-11T12:12:45.860Z,100879
2017-03-11T12:13:46.412Z,100877
2017-03-11T12:14:46.438Z,100877
2017-03-11T12:15:46.529Z,100874
2017-03-11T12:16:46.041Z,100871
2017-03-11T12:17:46.037Z,100867
2017-03-11T12:18:46.012Z,100868
2017-03-11T12:19:46.066Z,100863
2017-03-11T12:20:46.163Z,100863
2017-03-11T12:21:46.765Z,100857
2017-03-11T12:22:46.904Z,100865
2017-03-11T12:23:46.387Z,100859
2017-03-11T12:24:46.444Z,100859
2017-03-11T12:25:46.491Z,100861
2017-03-11T12:26:47.116Z,100859
2017-03-11T12:27:47.197Z,100854
2017-03-11T12:28:47.274Z,100853
2017-03-11T12:29:47.272Z,100852